Dades meteomassalio
Diari Summary for Diciembre 11, 2017 Units:  English    Metric   Both
« Previous Day
Next Day »
Diari Semanal Mensual Anual Personalitzat
  Maxima: Minima: Mijana:
Temperatura: TemperatureC °F 4.4 °F 10.5 °F
Rosada: DewpointC °F -3.8 °F 4 °F
Humitat: Humidity % 50 % 64 %
Velocitat del vent: WindSpeedKMH mph 0.0 mph 15.6 mph
Racha vent: WindSpeedGustKMH mph - -
Vent:- - West
Pressio: PressurehPa in 989.7 in -
Pluja: 3.3 in    
Historical Graphs
 
 
Tabular Data for Diciembre 11, 2017
Time Temperature Dew Point Pressure Wind Wind Speed Wind Gust Humidity Rainfall Rate (Hourly) solar Conditions
TemperatureC °F DewpointC °F PressurehPa in Calm     Humidity % HourlyPrecipMM in SolarRadiationWatts/m^2 W/m2 Conditions
00:01 10.0 °F 2.8 °F 998.2 in Calm     61 % 0.0 in 0.0 W/m2 CLR
00:06 10.0 °F 2.8 °F 997.9 in Calm     61 % 0.0 in 0.0 W/m2 CLR
00:11 10.0 °F 2.8 °F 997.9 in Calm     61 % 0.0 in 0.0 W/m2 CLR
00:16 10.0 °F 2.6 °F 997.9 in Calm     60 % 0.0 in 0.0 W/m2 CLR
00:21 10.0 °F 2.3 °F 997.9 in Calm     59 % 0.0 in 0.0 W/m2 CLR
00:26 9.4 °F 1.8 °F 997.9 in Calm     59 % 0.0 in 0.0 W/m2 CLR
00:31 10.0 °F 2.1 °F 997.9 in SSW 3.2 mph   58 % 0.0 in 0.0 W/m2 CLR
00:36 10.0 °F 2.1 °F 997.5 in SSW 11.1 mph 11.1 mph 58 % 0.0 in 0.0 W/m2 CLR
00:41 10.6 °F 2.6 °F 997.5 in SSW 5.6 mph 5.6 mph 58 % 0.0 in 0.0 W/m2 CLR
00:46 10.6 °F 2.4 °F 997.5 in SSW 5.6 mph 5.6 mph 57 % 0.0 in 0.0 W/m2 CLR
00:57 11.7 °F 3.4 °F 997.2 in SW 5.6 mph 5.6 mph 57 % 0.0 in 0.0 W/m2 CLR
01:02 13.3 °F 5.0 °F 996.8 in SW 5.6 mph 5.6 mph 57 % 0.0 in 0.0 W/m2 CLR
01:07 13.9 °F 5.5 °F 996.5 in SW 5.6 mph 5.6 mph 57 % 0.0 in 0.0 W/m2 CLR
01:12 14.4 °F 6.3 °F 996.2 in SW 16.7 mph 16.7 mph 58 % 0.0 in 0.0 W/m2 CLR
01:22 14.4 °F 6.3 °F 995.8 in SSW 18.5 mph 18.5 mph 58 % 0.0 in 0.0 W/m2 CLR
01:27 14.4 °F 6.3 °F 995.5 in SSW 20.4 mph 20.4 mph 58 % 0.0 in 0.0 W/m2 CLR
01:32 14.4 °F 6.3 °F 995.5 in SSW 18.5 mph 18.5 mph 58 % 0.0 in 0.0 W/m2 CLR
01:42 13.9 °F 6.0 °F 995.1 in SW 18.5 mph 18.5 mph 59 % 0.0 in 0.0 W/m2 CLR
01:47 13.9 °F 6.0 °F 995.1 in SSW 16.7 mph 16.7 mph 59 % 0.0 in 0.0 W/m2 CLR
02:07 13.9 °F 6.5 °F 994.5 in SW 18.5 mph 18.5 mph 61 % 0.0 in 0.0 W/m2 CLR
02:12 13.9 °F 6.2 °F 994.5 in SSW 18.5 mph 18.5 mph 60 % 0.0 in 0.0 W/m2 CLR
02:17 13.9 °F 6.2 °F 994.5 in SSE 18.5 mph 18.5 mph 60 % 0.0 in 0.0 W/m2 CLR
02:22 13.9 °F 6.0 °F 994.5 in South 13.0 mph 13.0 mph 59 % 0.0 in 0.0 W/m2 CLR
02:27 13.9 °F 6.0 °F 994.5 in SSW 7.4 mph 7.4 mph 59 % 0.0 in 0.0 W/m2 CLR
02:32 13.9 °F 6.2 °F 994.1 in SSW 9.7 mph 9.7 mph 60 % 0.0 in 0.0 W/m2 CLR
02:37 13.9 °F 6.2 °F 993.8 in SSW 6.4 mph 6.4 mph 60 % 0.0 in 0.0 W/m2 CLR
02:42 13.3 °F 5.9 °F 993.8 in SSW 7.4 mph 7.4 mph 61 % 0.0 in 0.0 W/m2 CLR
02:47 13.3 °F 5.9 °F 993.8 in Calm     61 % 0.0 in 0.0 W/m2 CLR
02:52 12.8 °F 5.4 °F 993.8 in West 5.6 mph   61 % 0.0 in 0.0 W/m2 CLR
02:57 12.8 °F 5.4 °F 993.8 in Calm     61 % 0.0 in 0.0 W/m2 CLR
03:02 12.2 °F 5.2 °F 993.5 in Calm     62 % 0.0 in 0.0 W/m2 CLR
03:07 12.2 °F 4.9 °F 993.5 in SSW 16.7 mph 16.7 mph 61 % 0.0 in 0.0 W/m2 CLR
03:12 12.8 °F 4.9 °F 993.1 in SSW 18.5 mph 18.5 mph 59 % 0.0 in 0.0 W/m2 CLR
03:17 13.3 °F 5.2 °F 993.1 in SW 18.5 mph 18.5 mph 58 % 0.0 in 0.0 W/m2 CLR
03:32 14.4 °F 6.3 °F 992.4 in SSW 17.7 mph 17.7 mph 58 % 0.0 in 0.0 W/m2 CLR
03:37 15.0 °F 6.6 °F 992.1 in SSW 24.1 mph 24.1 mph 57 % 0.0 in 0.0 W/m2 CLR
03:42 15.0 °F 6.6 °F 992.1 in SW 16.7 mph 16.7 mph 57 % 0.0 in 0.0 W/m2 CLR
03:47 15.0 °F 6.6 °F 991.8 in SW 27.8 mph 27.8 mph 57 % 0.0 in 0.0 W/m2 CLR
04:02 14.4 °F 6.8 °F 992.1 in SSW 22.5 mph 22.5 mph 60 % 0.0 in 0.0 W/m2 CLR
04:07 14.4 °F 6.8 °F 991.8 in SW 27.8 mph 27.8 mph 60 % 0.0 in 0.0 W/m2 CLR
04:17 14.4 °F 6.8 °F 991.4 in SSW 22.2 mph 22.2 mph 60 % 0.0 in 0.0 W/m2 CLR
04:22 14.4 °F 6.8 °F 991.1 in SSW 20.9 mph 20.9 mph 60 % 0.0 in 0.0 W/m2 CLR
04:27 14.4 °F 6.5 °F 991.1 in SSW 22.2 mph 22.2 mph 59 % 0.0 in 0.0 W/m2 CLR
04:32 14.4 °F 6.5 °F 991.1 in South 18.5 mph 18.5 mph 59 % 0.0 in 0.0 W/m2 CLR
04:37 14.4 °F 6.5 °F 991.1 in South 11.1 mph 11.1 mph 59 % 0.0 in 0.0 W/m2 CLR
04:42 13.9 °F 6.0 °F 991.1 in South 13.0 mph 13.0 mph 59 % 0.0 in 0.0 W/m2 CLR
04:47 13.9 °F 6.0 °F 991.1 in South 9.3 mph 9.3 mph 59 % 0.0 in 0.0 W/m2 CLR
04:52 13.3 °F 5.5 °F 990.7 in South 4.8 mph 4.8 mph 59 % 0.0 in 0.0 W/m2 CLR
05:02 13.3 °F 5.5 °F 990.4 in SSW 16.1 mph 16.1 mph 59 % 0.0 in 0.0 W/m2 CLR
05:12 14.4 °F 6.5 °F 990.4 in WSW 14.8 mph 14.8 mph 59 % 0.0 in 0.0 W/m2 CLR
05:22 13.9 °F 6.0 °F 990.4 in Calm     59 % 0.0 in 0.0 W/m2 CLR
05:27 13.9 °F 6.2 °F 990.7 in Calm     60 % 0.0 in 0.0 W/m2 CLR
05:37 13.9 °F 6.0 °F 990.4 in Calm     59 % 0.0 in 0.0 W/m2 CLR
05:47 13.9 °F 6.0 °F 989.7 in SSW 7.4 mph 7.4 mph 59 % 0.0 in 0.0 W/m2 CLR
05:52 13.9 °F 6.2 °F 989.7 in South 6.4 mph 6.4 mph 60 % 0.0 in 0.0 W/m2 CLR
05:57 13.9 °F 6.2 °F 989.7 in South 13.0 mph 13.0 mph 60 % 0.0 in 0.0 W/m2 CLR
06:02 13.9 °F 6.2 °F 989.7 in Calm     60 % 0.0 in 0.0 W/m2 CLR
06:12 13.9 °F 6.2 °F 989.7 in South 13.0 mph 13.0 mph 60 % 0.0 in 0.0 W/m2 CLR
06:22 13.9 °F 6.0 °F 989.7 in Calm     59 % 0.0 in 0.0 W/m2 CLR
06:27 13.9 °F 6.2 °F 989.7 in SW 5.6 mph 5.6 mph 60 % 0.0 in 0.0 W/m2 CLR
06:32 13.9 °F 6.0 °F 989.7 in SW 18.5 mph 18.5 mph 59 % 0.0 in 0.0 W/m2 CLR
06:47 14.4 °F 7.9 °F 991.1 in NNE 43.4 mph 43.4 mph 65 % 0.0 in 0.0 W/m2 CLR
06:57 11.7 °F 8.9 °F 991.8 in NNW 27.8 mph 27.8 mph 83 % 1.3 in 0.0 W/m2 RA
07:02 11.1 °F 8.7 °F 992.1 in NNW 18.5 mph 18.5 mph 85 % 1.8 in 0.0 W/m2 RA
07:07 11.1 °F 9.1 °F 992.1 in North 18.5 mph 18.5 mph 87 % 2.0 in 0.0 W/m2 RA
07:12 11.1 °F 9.2 °F 992.1 in NNW 9.3 mph 9.3 mph 88 % 2.3 in 0.0 W/m2 RA
07:17 11.1 °F 9.2 °F 991.8 in North 20.4 mph 20.4 mph 88 % 2.3 in 0.0 W/m2
07:27 10.6 °F 8.8 °F 991.4 in NW 13.0 mph 13.0 mph 89 % 2.5 in 0.0 W/m2
07:37 10.6 °F 8.8 °F 991.8 in WNW 11.3 mph 11.3 mph 89 % 2.5 in 0.0 W/m2 CLR
07:42 10.6 °F 8.8 °F 992.1 in NW 11.1 mph 11.1 mph 89 % 2.5 in 0.0 W/m2 CLR
07:47 10.6 °F 8.8 °F 992.1 in NW 14.5 mph 14.5 mph 89 % 2.5 in 0.0 W/m2 CLR
07:52 10.6 °F 8.8 °F 992.1 in NW 9.3 mph 9.3 mph 89 % 2.3 in 0.0 W/m2 CLR
07:57 10.6 °F 8.8 °F 992.1 in NW 11.1 mph 11.1 mph 89 % 1.5 in 0.0 W/m2 RA
08:02 10.6 °F 8.8 °F 992.4 in NW 14.8 mph 14.8 mph 89 % 1.0 in 0.0 W/m2
08:07 10.6 °F 8.7 °F 992.4 in NW 16.7 mph 16.7 mph 88 % 0.8 in 0.0 W/m2 CLR
08:12 10.6 °F 8.7 °F 992.1 in NW 11.1 mph 11.1 mph 88 % 0.5 in 0.0 W/m2 OVC
08:17 10.0 °F 8.1 °F 992.4 in WNW 18.5 mph 18.5 mph 88 % 0.8 in 0.0 W/m2 RA
08:22 10.0 °F 8.1 °F 992.1 in WNW 14.8 mph 14.8 mph 88 % 0.5 in 0.0 W/m2 CLR
08:32 10.0 °F 8.1 °F 992.4 in Calm     88 % 0.5 in 0.0 W/m2 OVC
08:37 10.0 °F 8.3 °F 992.8 in Calm     89 % 0.5 in 0.0 W/m2 OVC
08:42 10.0 °F 8.3 °F 992.8 in Calm     89 % 0.5 in 5.0 W/m2 OVC
08:47 10.0 °F 8.3 °F 992.8 in Calm     89 % 0.5 in 7.0 W/m2 BKN
08:52 10.0 °F 8.4 °F 992.4 in Calm     90 % 0.5 in 9.0 W/m2 BKN
09:07 10.0 °F 8.4 °F 992.4 in WSW 8.0 mph 8.0 mph 90 % 0.3 in 14.0 W/m2 BKN
09:13 10.0 °F 8.4 °F 992.4 in SW 5.6 mph 5.6 mph 90 % 0.3 in 18.0 W/m2 BKN
09:18 10.0 °F 8.3 °F 992.8 in WSW 5.6 mph 5.6 mph 89 % 0.0 in 19.0 W/m2 BKN
09:23 10.0 °F 8.1 °F 993.1 in Calm     88 % 0.0 in 23.0 W/m2 BKN
09:28 10.6 °F 8.7 °F 993.1 in Calm     88 % 0.0 in 25.0 W/m2 BKN
09:33 10.6 °F 8.7 °F 992.8 in Calm     88 % 0.0 in 23.0 W/m2 BKN
09:38 10.6 °F 8.7 °F 992.8 in Calm     88 % 0.0 in 26.0 W/m2 BKN
09:58 9.4 °F 6.3 °F 993.5 in WNW 6.4 mph 6.4 mph 81 % 0.0 in 14.0 W/m2 BKN
10:08 9.4 °F 6.2 °F 993.5 in WNW 11.1 mph 11.1 mph 80 % 0.3 in 28.0 W/m2 RA
10:13 9.4 °F 6.2 °F 993.5 in NW 13.0 mph 13.0 mph 80 % 0.3 in 42.0 W/m2 BKN
10:18 9.4 °F 6.0 °F 993.5 in WNW 13.0 mph 13.0 mph 79 % 0.3 in 56.0 W/m2 BKN
10:23 9.4 °F 5.8 °F 993.5 in WNW 14.8 mph 14.8 mph 78 % 0.3 in 54.0 W/m2 SCT
10:28 9.4 °F 6.0 °F 993.5 in WNW 13.0 mph 13.0 mph 79 % 0.3 in 49.0 W/m2 SCT
10:33 10.0 °F 6.2 °F 993.5 in WNW 18.5 mph 18.5 mph 77 % 0.3 in 54.0 W/m2 SCT
10:38 10.0 °F 5.6 °F 993.8 in WNW 22.2 mph 22.2 mph 74 % 0.3 in 56.0 W/m2 SCT
10:43 10.0 °F 5.2 °F 993.8 in NW 25.9 mph 25.9 mph 72 % 0.3 in 56.0 W/m2 SCT
10:48 10.0 °F 5.0 °F 993.8 in WNW 18.5 mph 18.5 mph 71 % 0.3 in 51.0 W/m2 SCT
10:53 10.0 °F 4.6 °F 993.8 in WNW 22.2 mph 22.2 mph 69 % 0.3 in 54.0 W/m2 SCT
10:58 10.6 °F 4.9 °F 993.8 in WNW 25.9 mph 25.9 mph 68 % 0.3 in 56.0 W/m2 SCT
11:03 10.6 °F 4.7 °F 994.1 in NW 18.5 mph 18.5 mph 67 % 0.3 in 54.0 W/m2 SCT
11:08 10.0 °F 4.2 °F 994.1 in WNW 20.9 mph 20.9 mph 67 % 0.0 in 63.0 W/m2 SCT
11:13 10.6 °F 4.7 °F 994.1 in WNW 16.7 mph 16.7 mph 67 % 0.0 in 72.0 W/m2 SCT
11:18 10.6 °F 4.9 °F 993.8 in West 18.5 mph 18.5 mph 68 % 0.0 in 86.0 W/m2 FEW
11:23 10.6 °F 5.3 °F 994.1 in WNW 9.3 mph 9.3 mph 70 % 0.0 in 95.0 W/m2 FEW
11:28 10.6 °F 5.3 °F 994.1 in NW 11.1 mph 11.1 mph 70 % 0.0 in 91.0 W/m2 CLR
11:33 10.6 °F 4.9 °F 994.1 in NW 14.8 mph 14.8 mph 68 % 0.0 in 88.0 W/m2 CLR
11:38 10.6 °F 4.9 °F 994.1 in NW 18.5 mph 18.5 mph 68 % 0.0 in 84.0 W/m2 CLR
11:43 10.6 °F 4.4 °F 994.1 in WNW 16.7 mph 16.7 mph 66 % 0.0 in 93.0 W/m2 CLR
11:48 10.6 °F 4.2 °F 994.1 in WNW 20.9 mph 20.9 mph 65 % 0.0 in 98.0 W/m2 CLR
11:53 10.6 °F 4.2 °F 994.1 in NNW 22.2 mph 22.2 mph 65 % 0.0 in 104.0 W/m2 CLR
11:58 11.1 °F 5.0 °F 994.1 in NW 18.5 mph 18.5 mph 66 % 0.0 in 118.0 W/m2 CLR
12:08 11.1 °F 4.6 °F 993.8 in NNW 20.4 mph 20.4 mph 64 % 0.0 in 130.0 W/m2 CLR
12:18 11.7 °F 4.6 °F 993.8 in NNE 18.5 mph 18.5 mph 62 % 0.0 in 151.0 W/m2 CLR
12:23 11.7 °F 4.6 °F 993.8 in North 16.1 mph 16.1 mph 62 % 0.0 in 156.0 W/m2 CLR
12:38 12.2 °F 5.2 °F 993.8 in North 13.0 mph 13.0 mph 62 % 0.0 in 169.0 W/m2 CLR
12:43 12.2 °F 5.2 °F 994.1 in NNW 18.5 mph 18.5 mph 62 % 0.0 in 162.0 W/m2 CLR
12:48 12.2 °F 5.2 °F 993.8 in NNW 18.5 mph 18.5 mph 62 % 0.0 in 163.0 W/m2 CLR
12:53 12.2 °F 4.9 °F 993.8 in NW 14.5 mph 14.5 mph 61 % 0.0 in 190.0 W/m2 CLR
12:58 12.8 °F 5.7 °F 994.1 in NNW 13.0 mph 13.0 mph 62 % 0.0 in 207.0 W/m2 CLR
13:03 12.8 °F 4.9 °F 993.8 in WNW 18.5 mph 18.5 mph 59 % 0.0 in 197.0 W/m2 CLR
13:08 12.8 °F 4.7 °F 993.8 in West 18.5 mph 18.5 mph 58 % 0.0 in 214.0 W/m2 CLR
13:18 12.8 °F 4.2 °F 994.1 in WNW 29.6 mph 29.6 mph 56 % 0.0 in 246.0 W/m2 CLR
13:28 13.3 °F 5.0 °F 994.1 in NW 31.5 mph 31.5 mph 57 % 0.0 in 269.0 W/m2 CLR
13:33 13.3 °F 4.7 °F 993.8 in NNW 40.7 mph 40.7 mph 56 % 0.0 in 545.0 W/m2 CLR
13:38 13.3 °F 5.0 °F 994.1 in NW 25.7 mph 25.7 mph 57 % 0.0 in 172.0 W/m2 CLR
13:43 13.3 °F 5.0 °F 994.1 in North 37.0 mph 37.0 mph 57 % 0.0 in 181.0 W/m2 CLR
13:48 12.8 °F 4.7 °F 994.1 in North 37.0 mph 37.0 mph 58 % 0.0 in 148.0 W/m2 CLR
13:58 12.2 °F 4.4 °F 994.5 in North 37.0 mph 37.0 mph 59 % 0.0 in 135.0 W/m2 CLR
14:03 12.2 °F 4.9 °F 994.5 in NNW 31.5 mph 31.5 mph 61 % 0.0 in 165.0 W/m2 CLR
14:08 12.2 °F 4.7 °F 994.5 in NW 27.8 mph 27.8 mph 60 % 0.0 in 163.0 W/m2 CLR
14:13 11.7 °F 4.4 °F 994.5 in NNW 33.3 mph 33.3 mph 61 % 0.0 in 153.0 W/m2 CLR
14:18 11.7 °F 4.2 °F 994.5 in NNW 40.2 mph 40.2 mph 60 % 0.0 in 160.0 W/m2 CLR
14:24 11.7 °F 4.8 °F 994.5 in NW 31.5 mph 31.5 mph 63 % 0.0 in 192.0 W/m2 CLR
14:29 11.7 °F 4.8 °F 994.5 in North 29.6 mph 29.6 mph 63 % 0.0 in 160.0 W/m2 CLR
14:34 11.7 °F 5.5 °F 995.1 in North 32.2 mph 32.2 mph 66 % 0.0 in 130.0 W/m2 CLR
14:39 11.1 °F 5.8 °F 995.5 in NNW 50.0 mph 50.0 mph 70 % 0.0 in 35.0 W/m2 CLR
14:44 10.0 °F 5.6 °F 994.8 in NW 20.4 mph 20.4 mph 74 % 0.3 in 121.0 W/m2 RA
14:49 9.4 °F 5.2 °F 995.1 in NW 31.5 mph 31.5 mph 75 % 0.3 in 141.0 W/m2 FEW
14:54 9.4 °F 5.4 °F 995.1 in NW 20.4 mph 20.4 mph 76 % 0.3 in 153.0 W/m2 CLR
14:59 9.4 °F 5.2 °F 995.1 in NNW 24.1 mph 24.1 mph 75 % 0.3 in 121.0 W/m2 CLR
15:04 9.4 °F 5.4 °F 995.1 in NW 18.5 mph 18.5 mph 76 % 0.3 in 153.0 W/m2 CLR
15:09 10.0 °F 5.8 °F 995.5 in NW 20.4 mph 20.4 mph 75 % 0.3 in 197.0 W/m2 CLR
15:39 11.7 °F 4.6 °F 995.8 in WNW 19.3 mph 19.3 mph 62 % 0.3 in 264.0 W/m2 CLR
15:44 12.2 °F 5.4 °F 995.8 in NW 19.3 mph 19.3 mph 63 % 0.0 in 171.0 W/m2 CLR
15:49 12.2 °F 5.2 °F 996.2 in NNW 20.4 mph 20.4 mph 62 % 0.0 in 153.0 W/m2 CLR
15:54 11.7 °F 3.7 °F 996.5 in North 29.6 mph 29.6 mph 58 % 0.0 in 76.0 W/m2 CLR
15:59 11.7 °F 2.7 °F 996.5 in NNW 22.2 mph 22.2 mph 54 % 0.0 in 62.0 W/m2 FEW
16:24 11.1 °F 1.6 °F 997.2 in North 16.7 mph 16.7 mph 52 % 0.0 in 47.0 W/m2 SCT
16:34 10.6 °F 0.8 °F 997.5 in North 20.4 mph 20.4 mph 51 % 0.0 in 23.0 W/m2 BKN
16:39 10.6 °F 1.1 °F 997.5 in North 13.0 mph 13.0 mph 52 % 0.0 in 21.0 W/m2 BKN
16:44 11.1 °F 1.6 °F 997.5 in North 16.7 mph 16.7 mph 52 % 0.0 in 42.0 W/m2 SCT
16:49 10.6 °F 1.1 °F 997.5 in Calm     52 % 0.0 in 39.0 W/m2 BKN
16:54 10.6 °F 0.8 °F 997.5 in North 14.8 mph 14.8 mph 51 % 0.0 in 35.0 W/m2 BKN
16:59 10.0 °F 0.8 °F 997.9 in NNW 16.7 mph 16.7 mph 53 % 0.0 in 19.0 W/m2 BKN
17:04 10.0 °F 1.1 °F 997.9 in Calm     54 % 0.0 in 19.0 W/m2 BKN
17:09 9.4 °F 0.6 °F 998.2 in NW 3.7 mph 3.7 mph 54 % 0.0 in 21.0 W/m2 BKN
17:14 8.9 °F 0.1 °F 998.2 in WNW 14.8 mph 14.8 mph 54 % 0.0 in 16.0 W/m2 BKN
17:19 8.3 °F -0.2 °F 998.5 in NW 16.7 mph 16.7 mph 55 % 0.0 in 12.0 W/m2 BKN
17:24 8.3 °F -0.2 °F 998.5 in WNW 9.3 mph 9.3 mph 55 % 0.0 in 9.0 W/m2 BKN
17:29 8.3 °F 0.1 °F 998.5 in WNW 13.0 mph 13.0 mph 56 % 0.0 in 5.0 W/m2 OVC
17:39 8.3 °F 0.6 °F 998.9 in WNW 11.1 mph 11.1 mph 58 % 0.0 in 0.0 W/m2 OVC
17:54 7.2 °F -0.1 °F 999.2 in WNW 13.0 mph 13.0 mph 60 % 0.0 in 0.0 W/m2 CLR
17:59 6.7 °F -0.6 °F 999.2 in WNW 9.3 mph 9.3 mph 60 % 0.0 in 0.0 W/m2 CLR
18:04 6.7 °F -0.6 °F 999.2 in West 13.0 mph 13.0 mph 60 % 0.0 in 0.0 W/m2 CLR
18:14 6.1 °F -0.6 °F 999.5 in West 11.1 mph 11.1 mph 62 % 0.0 in 0.0 W/m2 CLR
18:19 5.6 °F -1.2 °F 999.9 in WNW 11.1 mph 11.1 mph 62 % 0.0 in 0.0 W/m2 CLR
18:24 5.6 °F -0.9 °F 999.9 in WNW 13.0 mph 13.0 mph 63 % 0.0 in 0.0 W/m2 CLR
18:44 4.4 °F -3.8 °F 1000.6 in NW 22.2 mph 22.2 mph 55 % 0.0 in 0.0 W/m2 CLR
18:49 4.4 °F -3.8 °F 1000.6 in NW 20.4 mph 20.4 mph 55 % 0.0 in 0.0 W/m2 CLR
18:54 5.6 °F -2.8 °F 1000.9 in NW 18.5 mph 18.5 mph 55 % 0.0 in 0.0 W/m2 CLR
18:59 6.1 °F -2.5 °F 1000.9 in NW 20.9 mph 20.9 mph 54 % 0.0 in 0.0 W/m2 CLR
19:04 7.8 °F -0.9 °F 1000.9 in NW 22.2 mph 22.2 mph 54 % 0.0 in 0.0 W/m2 CLR
19:09 7.8 °F -1.2 °F 1001.2 in WNW 22.5 mph 22.5 mph 53 % 0.0 in 0.0 W/m2 CLR
19:14 8.3 °F -0.7 °F 1001.2 in NW 20.9 mph 20.9 mph 53 % 0.0 in 0.0 W/m2 CLR
19:19 8.3 °F -0.9 °F 1001.2 in WNW 24.1 mph 24.1 mph 52 % 0.0 in 0.0 W/m2 CLR
19:24 8.9 °F -0.4 °F 1001.2 in NW 22.2 mph 22.2 mph 52 % 0.0 in 0.0 W/m2 CLR
19:34 8.3 °F -0.9 °F 1001.2 in WNW 18.5 mph 18.5 mph 52 % 0.0 in 0.0 W/m2 CLR
19:36 8.3 °F -0.9 °F 1001.6 in NW 22.2 mph 22.2 mph 52 % 0.0 in 0.0 W/m2 CLR
19:41 8.3 °F -0.9 °F 1001.6 in NW 22.2 mph 22.2 mph 52 % 0.0 in 0.0 W/m2 CLR
19:51 8.3 °F -1.5 °F 1001.6 in NW 22.2 mph 22.2 mph 50 % 0.0 in 0.0 W/m2 CLR
19:56 8.3 °F -1.5 °F 1001.6 in WNW 24.1 mph 24.1 mph 50 % 0.0 in 0.0 W/m2 CLR
20:01 8.9 °F -0.7 °F 1001.9 in WNW 25.9 mph 25.9 mph 51 % 0.0 in 0.0 W/m2 CLR
20:11 8.9 °F -0.7 °F 1001.9 in NW 27.8 mph 27.8 mph 51 % 0.0 in 0.0 W/m2 CLR
20:26 8.9 °F -0.4 °F 1002.3 in NW 18.5 mph 18.5 mph 52 % 0.0 in 0.0 W/m2 CLR
20:36 8.3 °F -0.9 °F 1002.9 in NW 18.5 mph 18.5 mph 52 % 0.0 in 0.0 W/m2 CLR
20:41 8.3 °F -0.7 °F 1002.9 in NW 14.8 mph 14.8 mph 53 % 0.0 in 0.0 W/m2 CLR
20:46 7.8 °F -0.9 °F 1002.9 in NW 14.8 mph 14.8 mph 54 % 0.0 in 0.0 W/m2 CLR
20:47 7.8 °F -0.9 °F 1002.9 in NW 14.8 mph 14.8 mph 54 % 0.0 in 0.0 W/m2 CLR
20:52 7.8 °F -0.9 °F 1003.3 in WNW 13.0 mph 13.0 mph 54 % 0.0 in 0.0 W/m2 CLR
20:57 7.2 °F -1.5 °F 1003.3 in WNW 11.1 mph 11.1 mph 54 % 0.0 in 0.0 W/m2 CLR
21:02 6.1 °F -2.3 °F 1003.6 in Calm     55 % 0.0 in 0.0 W/m2 CLR
21:12 5.6 °F -2.6 °F 1003.9 in Calm     56 % 0.0 in 0.0 W/m2 CLR
21:22 4.4 °F -3.3 °F 1003.9 in Calm     57 % 0.0 in 0.0 W/m2 CLR
21:27 4.4 °F -3.1 °F 1004.3 in Calm     58 % 0.0 in 0.0 W/m2 CLR
21:37 5.0 °F -2.1 °F 1004.6 in Calm     60 % 0.0 in 0.0 W/m2 CLR
21:42 5.6 °F -1.6 °F 1004.6 in NNW 14.8 mph 14.8 mph 60 % 0.0 in 0.0 W/m2 CLR
21:52 6.1 °F -1.3 °F 1004.6 in NNW 18.5 mph 18.5 mph 59 % 0.0 in 0.0 W/m2 CLR
22:02 7.8 °F 0.7 °F 1005.0 in North 18.5 mph 18.5 mph 61 % 0.0 in 0.0 W/m2 CLR
22:07 7.8 °F 0.7 °F 1005.3 in North 18.5 mph 18.5 mph 61 % 0.0 in 0.0 W/m2 CLR
22:12 7.8 °F 0.7 °F 1005.6 in North 22.2 mph 22.2 mph 61 % 0.0 in 0.0 W/m2 CLR
22:32 7.2 °F 1.1 °F 1006.0 in NNW 19.3 mph 19.3 mph 65 % 0.0 in 0.0 W/m2 CLR
22:42 7.2 °F 1.5 °F 1006.3 in NNW 24.1 mph 24.1 mph 67 % 0.0 in 0.0 W/m2 CLR
22:52 7.2 °F 1.7 °F 1006.0 in NNW 22.2 mph 22.2 mph 68 % 0.0 in 0.0 W/m2 CLR
22:57 7.2 °F 1.9 °F 1006.3 in NNW 20.4 mph 20.4 mph 69 % 0.0 in 0.0 W/m2 CLR
23:07 7.2 °F 2.1 °F 1006.7 in NNW 18.5 mph 18.5 mph 70 % 0.0 in 0.0 W/m2 CLR
23:12 7.2 °F 2.3 °F 1007.0 in North 11.1 mph 11.1 mph 71 % 0.0 in 0.0 W/m2 CLR
23:17 7.2 °F 2.3 °F 1007.0 in NNW 22.2 mph 22.2 mph 71 % 0.0 in 0.0 W/m2 CLR
23:22 7.2 °F 2.3 °F 1007.0 in North 20.9 mph 20.9 mph 71 % 0.0 in 0.0 W/m2 CLR
23:27 7.2 °F 2.3 °F 1007.3 in NNW 16.7 mph 16.7 mph 71 % 0.0 in 0.0 W/m2 CLR
23:32 7.2 °F 2.3 °F 1007.3 in NW 14.8 mph 14.8 mph 71 % 0.0 in 0.0 W/m2 CLR
23:37 7.2 °F 2.3 °F 1007.3 in NW 16.7 mph 16.7 mph 71 % 0.0 in 0.0 W/m2 CLR
23:42 7.2 °F 2.5 °F 1007.3 in NW 20.4 mph 20.4 mph 72 % 0.0 in 0.0 W/m2 CLR
23:47 6.7 °F 2.2 °F 1007.3 in NNW 27.8 mph 27.8 mph 73 % 0.0 in 0.0 W/m2 CLR
23:52 6.7 °F 2.2 °F 1007.7 in NNW 18.5 mph 18.5 mph 73 % 0.0 in 0.0 W/m2 CLR
23:57 6.7 °F 2.3 °F 1007.7 in NNW 31.5 mph 31.5 mph 74 % 0.0 in 0.0 W/m2 CLR
Lo Temps de Massalio
Compliments of Weather Underground - 1 mb